Mariner A — 9HVA7 — position and weather

sailwx.info

Track history (hours):
 
Tides and Currents Weather Stations Pressure Air Temp Water Temp Dewpoint Dewpoint Depression Visibility Wind Speed Wind Dir Waves Ship Positions

Mariner A

Last reported at 2014-Aug-27 18:04 UTC. Time now 2014-Aug-29 22:29 UTC.
Position N 36°02' E 034°43'.

Length 176 m; draft 10 m.

Type: Tanker. MMSI: 215817000.

Date/timePositionNaut miles runAvg speedWind from/ knotsBaromVisibWave heightAir tempDewpointWater temp
2014-Aug-27 18:04N 36°02' E 034°43'5610.2
2014-Aug-27 12:33N 35°09' E 034°23'1211.5
2014-Aug-27 11:29N 34°58' E 034°16'1211.2
2014-Aug-27 10:24N 34°46' E 034°14'1011.3
2014-Aug-27 09:33N 34°36' E 034°14'1211.1
2014-Aug-27 08:27N 34°24' E 034°14'1011.2
2014-Aug-27 07:33N 34°14' E 034°14'9 8.9
2014-Aug-27 06:33N 34°05' E 034°14'10 9.7
2014-Aug-27 05:33N 33°55' E 034°14'1110.8
2014-Aug-27 04:33N 33°45' E 034°14'1210.8
2014-Aug-27 03:28N 33°33' E 034°14'1010.9
2014-Aug-27 02:33N 33°23' E 034°15'37 8.4
2014-Aug-26 22:08N 32°57' E 034°46'14 0.3
2014-Aug-24 22:30N 32°49' E 035°00'0 0.0
2014-Aug-24 16:32N 32°49' E 035°00'  
2014-Aug-21 21:10N 33°17' E 033°40'812.0
2014-Aug-21 20:28N 33°21' E 033°31'1411.9
2014-Aug-21 19:19N 33°27' E 033°16'912.1
2014-Aug-21 18:33N 33°32' E 033°07'1212.0
2014-Aug-21 17:33N 33°37' E 032°54'1212.1
2014-Aug-21 16:33N 33°43' E 032°41'1212.4
2014-Aug-21 15:33N 33°49' E 032°28'1312.7
2014-Aug-21 14:33N 33°55' E 032°14'4012.4
2014-Aug-21 11:18N 34°14' E 031°32'16 8.9
2014-Aug-21 09:33N 34°22' E 031°15'1 0.8
2014-Aug-21 08:33N 34°22' E 031°14'2 0.8
2014-Aug-21 06:31N 34°22' E 031°12'  
Track history (hours):
 
Tides and Currents Weather Stations Pressure Air Temp Water Temp Dewpoint Dewpoint Depression Visibility Wind Speed Wind Dir Waves Ship Positions

Mariner A

Last reported at 2014-Aug-27 18:04 UTC. Time now 2014-Aug-29 22:29 UTC.
Position N 36°02' E 034°43'.

Length 176 m; draft 10 m.

Type: Tanker. MMSI: 215817000.

Date/timePositionNaut miles runAvg speedWind from/ knotsBaromVisibWave heightAir tempDewpointWater temp
2014-Aug-27 18:04N 36°02' E 034°43'5610.2
2014-Aug-27 12:33N 35°09' E 034°23'1211.5
2014-Aug-27 11:29N 34°58' E 034°16'1211.2
2014-Aug-27 10:24N 34°46' E 034°14'1011.3
2014-Aug-27 09:33N 34°36' E 034°14'1211.1
2014-Aug-27 08:27N 34°24' E 034°14'1011.2
2014-Aug-27 07:33N 34°14' E 034°14'9 8.9
2014-Aug-27 06:33N 34°05' E 034°14'10 9.7
2014-Aug-27 05:33N 33°55' E 034°14'1110.8
2014-Aug-27 04:33N 33°45' E 034°14'1210.8
2014-Aug-27 03:28N 33°33' E 034°14'1010.9
2014-Aug-27 02:33N 33°23' E 034°15'37 8.4
2014-Aug-26 22:08N 32°57' E 034°46'14 0.3
2014-Aug-24 22:30N 32°49' E 035°00'0 0.0
2014-Aug-24 16:32N 32°49' E 035°00'  
2014-Aug-21 21:10N 33°17' E 033°40'812.0
2014-Aug-21 20:28N 33°21' E 033°31'1411.9
2014-Aug-21 19:19N 33°27' E 033°16'912.1
2014-Aug-21 18:33N 33°32' E 033°07'1212.0
2014-Aug-21 17:33N 33°37' E 032°54'1212.1
2014-Aug-21 16:33N 33°43' E 032°41'1212.4
2014-Aug-21 15:33N 33°49' E 032°28'1312.7
2014-Aug-21 14:33N 33°55' E 032°14'4012.4
2014-Aug-21 11:18N 34°14' E 031°32'16 8.9
2014-Aug-21 09:33N 34°22' E 031°15'1 0.8
2014-Aug-21 08:33N 34°22' E 031°14'2 0.8
2014-Aug-21 06:31N 34°22' E 031°12'  

Dump ship's entire track history